Bald Hill, Kentucky
Current Conditions -  °F | °C
As of 9:35 PM on Sunday 23 Nov 2014 (Local Time) from KFGX Reporting Station
Overcast Overcast  
Wind Chill: 56°   Ceiling: 6000
Heat Index: 56°   Visibility: 10mi
Dew Point: 53°   Wind: 20mph
Humidity: 88%   Direction: 150°SSE
Pressure: 29.4"   Gusts: 25mph
Location:  38.436°N, 83.6931°W
Report Text: KFGX 240235Z AUTO 15017G22KT 10SM SCT042 BKN060 OVC090 14/12 A2940 RMK AO2 T01350116
Loading
Personal Weather Stations






























Interactive Weather Map New forecast layout! Learn more

10-Day Weather Forecast

Advertisements
Track Severe Weather on mobile